sensor_id;sensor_type;location;lat;lon;timestamp;temperature;humidity
4103;DHT22;2065;49.790;9.620;2022-08-05T00:02:22;30.60;37.30
4103;DHT22;2065;49.790;9.620;2022-08-05T00:04:49;30.70;37.30
4103;DHT22;2065;49.790;9.620;2022-08-05T00:07:16;30.60;37.20
4103;DHT22;2065;49.790;9.620;2022-08-05T00:09:43;30.70;37.80
4103;DHT22;2065;49.790;9.620;2022-08-05T00:12:11;30.60;38.10
4103;DHT22;2065;49.790;9.620;2022-08-05T00:14:39;30.60;38.00
4103;DHT22;2065;49.790;9.620;2022-08-05T00:17:06;30.50;38.20
4103;DHT22;2065;49.790;9.620;2022-08-05T00:19:33;30.50;38.60
4103;DHT22;2065;49.790;9.620;2022-08-05T00:22:01;30.40;38.50
4103;DHT22;2065;49.790;9.620;2022-08-05T00:24:28;30.40;38.70
4103;DHT22;2065;49.790;9.620;2022-08-05T00:26:55;30.40;38.60
4103;DHT22;2065;49.790;9.620;2022-08-05T00:29:22;30.40;38.50
4103;DHT22;2065;49.790;9.620;2022-08-05T00:31:50;30.40;38.50
4103;DHT22;2065;49.790;9.620;2022-08-05T00:34:17;30.30;38.50
4103;DHT22;2065;49.790;9.620;2022-08-05T00:36:44;30.30;38.30
4103;DHT22;2065;49.790;9.620;2022-08-05T00:39:11;30.30;38.60
4103;DHT22;2065;49.790;9.620;2022-08-05T00:41:38;30.20;38.80
4103;DHT22;2065;49.790;9.620;2022-08-05T00:44:05;30.20;38.80
4103;DHT22;2065;49.790;9.620;2022-08-05T00:46:32;30.20;39.40
4103;DHT22;2065;49.790;9.620;2022-08-05T00:49:01;30.20;40.10
4103;DHT22;2065;49.790;9.620;2022-08-05T00:51:28;30.10;41.00
4103;DHT22;2065;49.790;9.620;2022-08-05T00:53:55;30.00;41.30
4103;DHT22;2065;49.790;9.620;2022-08-05T00:56:22;29.60;42.80
4103;DHT22;2065;49.790;9.620;2022-08-05T00:58:49;29.40;44.50
4103;DHT22;2065;49.790;9.620;2022-08-05T01:01:16;29.40;44.50
4103;DHT22;2065;49.790;9.620;2022-08-05T01:03:43;29.00;44.20
4103;DHT22;2065;49.790;9.620;2022-08-05T01:06:11;28.50;43.70
4103;DHT22;2065;49.790;9.620;2022-08-05T01:08:38;28.60;43.80
4103;DHT22;2065;49.790;9.620;2022-08-05T01:11:10;28.90;43.60
4103;DHT22;2065;49.790;9.620;2022-08-05T01:14:32;28.70;42.70
4103;DHT22;2065;49.790;9.620;2022-08-05T01:17:04;28.90;42.00
4103;DHT22;2065;49.790;9.620;2022-08-05T01:19:36;29.00;40.70
4103;DHT22;2065;49.790;9.620;2022-08-05T01:22:17;29.10;40.30
4103;DHT22;2065;49.790;9.620;2022-08-05T01:24:54;29.20;39.90
4103;DHT22;2065;49.790;9.620;2022-08-05T01:27:52;29.20;39.70
4103;DHT22;2065;49.790;9.620;2022-08-05T01:30:28;29.30;39.60
4103;DHT22;2065;49.790;9.620;2022-08-05T01:32:58;29.30;39.90
4103;DHT22;2065;49.790;9.620;2022-08-05T01:35:29;29.30;39.60
4103;DHT22;2065;49.790;9.620;2022-08-05T01:37:58;29.40;38.90
4103;DHT22;2065;49.790;9.620;2022-08-05T01:40:28;29.50;39.40
4103;DHT22;2065;49.790;9.620;2022-08-05T01:43:00;29.50;38.90
4103;DHT22;2065;49.790;9.620;2022-08-05T01:45:29;29.60;39.30
4103;DHT22;2065;49.790;9.620;2022-08-05T01:47:59;29.50;39.00
4103;DHT22;2065;49.790;9.620;2022-08-05T01:50:29;29.50;40.10
4103;DHT22;2065;49.790;9.620;2022-08-05T01:52:59;29.20;41.20
4103;DHT22;2065;49.790;9.620;2022-08-05T01:55:28;29.30;41.60
4103;DHT22;2065;49.790;9.620;2022-08-05T01:57:58;29.40;41.70
4103;DHT22;2065;49.790;9.620;2022-08-05T02:00:26;29.40;42.20
4103;DHT22;2065;49.790;9.620;2022-08-05T02:02:58;29.10;43.90
4103;DHT22;2065;49.790;9.620;2022-08-05T02:05:30;29.00;44.60
4103;DHT22;2065;49.790;9.620;2022-08-05T02:07:58;29.00;44.40
4103;DHT22;2065;49.790;9.620;2022-08-05T02:10:26;29.00;44.60
4103;DHT22;2065;49.790;9.620;2022-08-05T02:12:59;29.10;44.40
4103;DHT22;2065;49.790;9.620;2022-08-05T02:15:30;29.40;43.60
4103;DHT22;2065;49.790;9.620;2022-08-05T02:18:03;29.40;44.00
4103;DHT22;2065;49.790;9.620;2022-08-05T02:20:35;29.40;44.10
4103;DHT22;2065;49.790;9.620;2022-08-05T02:23:08;29.50;44.00
4103;DHT22;2065;49.790;9.620;2022-08-05T02:25:39;29.70;43.40
4103;DHT22;2065;49.790;9.620;2022-08-05T02:28:09;29.70;43.30
4103;DHT22;2065;49.790;9.620;2022-08-05T02:30:42;29.70;43.70
4103;DHT22;2065;49.790;9.620;2022-08-05T02:33:10;29.70;43.50
4103;DHT22;2065;49.790;9.620;2022-08-05T02:35:41;29.70;43.40
4103;DHT22;2065;49.790;9.620;2022-08-05T02:38:09;29.60;44.00
4103;DHT22;2065;49.790;9.620;2022-08-05T02:40:41;29.70;43.80
4103;DHT22;2065;49.790;9.620;2022-08-05T02:43:10;29.80;43.70
4103;DHT22;2065;49.790;9.620;2022-08-05T02:45:38;29.80;43.30
4103;DHT22;2065;49.790;9.620;2022-08-05T02:48:07;30.00;43.20
4103;DHT22;2065;49.790;9.620;2022-08-05T02:50:36;30.00;42.90
4103;DHT22;2065;49.790;9.620;2022-08-05T02:53:04;30.00;42.80
4103;DHT22;2065;49.790;9.620;2022-08-05T02:55:31;30.00;42.60
4103;DHT22;2065;49.790;9.620;2022-08-05T02:58:00;30.00;43.10
4103;DHT22;2065;49.790;9.620;2022-08-05T03:00:29;29.90;43.00
4103;DHT22;2065;49.790;9.620;2022-08-05T03:02:56;29.80;43.40
4103;DHT22;2065;49.790;9.620;2022-08-05T03:05:24;29.70;43.40
4103;DHT22;2065;49.790;9.620;2022-08-05T03:07:51;29.60;43.80
4103;DHT22;2065;49.790;9.620;2022-08-05T03:10:19;29.70;43.50
4103;DHT22;2065;49.790;9.620;2022-08-05T03:12:47;29.60;43.60
4103;DHT22;2065;49.790;9.620;2022-08-05T03:15:14;29.80;42.90
4103;DHT22;2065;49.790;9.620;2022-08-05T03:17:42;30.00;42.70
4103;DHT22;2065;49.790;9.620;2022-08-05T03:20:10;30.10;42.00
4103;DHT22;2065;49.790;9.620;2022-08-05T03:22:37;30.30;42.00
4103;DHT22;2065;49.790;9.620;2022-08-05T03:25:05;30.40;42.10
4103;DHT22;2065;49.790;9.620;2022-08-05T03:27:32;30.40;41.80
4103;DHT22;2065;49.790;9.620;2022-08-05T03:29:59;30.40;42.00
4103;DHT22;2065;49.790;9.620;2022-08-05T03:32:27;30.40;41.70
4103;DHT22;2065;49.790;9.620;2022-08-05T03:34:55;30.40;41.00
4103;DHT22;2065;49.790;9.620;2022-08-05T03:37:22;30.40;41.70
4103;DHT22;2065;49.790;9.620;2022-08-05T03:39:58;30.40;41.80
4103;DHT22;2065;49.790;9.620;2022-08-05T03:42:26;30.40;42.20
4103;DHT22;2065;49.790;9.620;2022-08-05T03:44:53;30.40;42.20
4103;DHT22;2065;49.790;9.620;2022-08-05T03:47:20;30.40;42.40
4103;DHT22;2065;49.790;9.620;2022-08-05T03:49:47;30.40;42.30
4103;DHT22;2065;49.790;9.620;2022-08-05T03:52:20;30.40;42.50
4103;DHT22;2065;49.790;9.620;2022-08-05T03:54:51;30.40;42.60
4103;DHT22;2065;49.790;9.620;2022-08-05T03:57:22;30.40;42.60
4103;DHT22;2065;49.790;9.620;2022-08-05T03:59:54;30.40;42.60
4103;DHT22;2065;49.790;9.620;2022-08-05T04:02:24;30.40;42.60
4103;DHT22;2065;49.790;9.620;2022-08-05T04:04:51;30.40;42.90
4103;DHT22;2065;49.790;9.620;2022-08-05T04:07:21;30.40;43.00
4103;DHT22;2065;49.790;9.620;2022-08-05T04:09:48;30.40;42.70
4103;DHT22;2065;49.790;9.620;2022-08-05T04:12:15;30.40;43.10
4103;DHT22;2065;49.790;9.620;2022-08-05T04:14:42;30.40;43.10
4103;DHT22;2065;49.790;9.620;2022-08-05T04:17:10;30.30;44.00
4103;DHT22;2065;49.790;9.620;2022-08-05T04:19:40;30.30;43.30
4103;DHT22;2065;49.790;9.620;2022-08-05T04:22:08;30.20;44.30
4103;DHT22;2065;49.790;9.620;2022-08-05T04:24:36;30.10;44.50
4103;DHT22;2065;49.790;9.620;2022-08-05T04:27:03;30.10;44.80
4103;DHT22;2065;49.790;9.620;2022-08-05T04:29:30;30.00;44.90
4103;DHT22;2065;49.790;9.620;2022-08-05T04:31:57;29.70;45.30
4103;DHT22;2065;49.790;9.620;2022-08-05T04:34:24;29.70;44.10
4103;DHT22;2065;49.790;9.620;2022-08-05T04:36:51;29.70;44.70
4103;DHT22;2065;49.790;9.620;2022-08-05T04:39:18;29.70;44.80
4103;DHT22;2065;49.790;9.620;2022-08-05T04:41:47;29.80;45.00
4103;DHT22;2065;49.790;9.620;2022-08-05T04:44:15;29.90;45.00
4103;DHT22;2065;49.790;9.620;2022-08-05T04:46:41;30.00;44.70
4103;DHT22;2065;49.790;9.620;2022-08-05T04:49:08;29.90;44.40
4103;DHT22;2065;49.790;9.620;2022-08-05T04:51:35;29.90;44.60
4103;DHT22;2065;49.790;9.620;2022-08-05T04:54:02;30.00;45.00
4103;DHT22;2065;49.790;9.620;2022-08-05T04:56:29;30.00;45.60
4103;DHT22;2065;49.790;9.620;2022-08-05T04:58:58;30.00;45.90
4103;DHT22;2065;49.790;9.620;2022-08-05T05:01:25;30.00;45.70
4103;DHT22;2065;49.790;9.620;2022-08-05T05:03:52;29.80;46.30
4103;DHT22;2065;49.790;9.620;2022-08-05T05:06:19;29.10;45.20
4103;DHT22;2065;49.790;9.620;2022-08-05T05:17:56;29.10;45.80
4103;DHT22;2065;49.790;9.620;2022-08-05T05:20:23;29.00;45.00
4103;DHT22;2065;49.790;9.620;2022-08-05T05:22:50;29.10;44.60
4103;DHT22;2065;49.790;9.620;2022-08-05T05:25:17;29.10;44.80
4103;DHT22;2065;49.790;9.620;2022-08-05T05:27:45;29.20;44.50
4103;DHT22;2065;49.790;9.620;2022-08-05T05:30:13;29.30;44.40
4103;DHT22;2065;49.790;9.620;2022-08-05T05:33:30;29.40;44.40
4103;DHT22;2065;49.790;9.620;2022-08-05T05:35:59;29.40;44.60
4103;DHT22;2065;49.790;9.620;2022-08-05T05:38:26;29.30;44.90
4103;DHT22;2065;49.790;9.620;2022-08-05T05:40:54;29.30;45.10
4103;DHT22;2065;49.790;9.620;2022-08-05T05:43:21;29.20;45.30
4103;DHT22;2065;49.790;9.620;2022-08-05T05:45:48;29.30;45.20
4103;DHT22;2065;49.790;9.620;2022-08-05T05:48:15;29.40;45.20
4103;DHT22;2065;49.790;9.620;2022-08-05T05:50:44;29.50;45.00
4103;DHT22;2065;49.790;9.620;2022-08-05T05:53:11;29.40;44.90
4103;DHT22;2065;49.790;9.620;2022-08-05T05:55:40;29.30;45.10
4103;DHT22;2065;49.790;9.620;2022-08-05T05:58:07;29.40;45.50
4103;DHT22;2065;49.790;9.620;2022-08-05T06:00:34;29.50;45.30
4103;DHT22;2065;49.790;9.620;2022-08-05T06:03:01;29.60;45.50
4103;DHT22;2065;49.790;9.620;2022-08-05T06:05:28;29.50;46.10
4103;DHT22;2065;49.790;9.620;2022-08-05T06:07:57;29.50;46.30
4103;DHT22;2065;49.790;9.620;2022-08-05T06:10:24;29.50;46.30
4103;DHT22;2065;49.790;9.620;2022-08-05T06:12:51;29.40;46.90
4103;DHT22;2065;49.790;9.620;2022-08-05T06:15:18;29.40;46.90
4103;DHT22;2065;49.790;9.620;2022-08-05T06:17:45;29.20;47.20
4103;DHT22;2065;49.790;9.620;2022-08-05T06:20:12;29.30;47.40
4103;DHT22;2065;49.790;9.620;2022-08-05T06:22:39;29.40;47.30
4103;DHT22;2065;49.790;9.620;2022-08-05T06:25:08;29.40;47.30
4103;DHT22;2065;49.790;9.620;2022-08-05T06:27:37;29.40;47.00
4103;DHT22;2065;49.790;9.620;2022-08-05T06:30:06;29.40;46.90
4103;DHT22;2065;49.790;9.620;2022-08-05T06:32:33;29.40;47.10
4103;DHT22;2065;49.790;9.620;2022-08-05T06:35:00;29.50;46.80
4103;DHT22;2065;49.790;9.620;2022-08-05T06:37:27;29.60;46.90
4103;DHT22;2065;49.790;9.620;2022-08-05T06:39:54;29.70;47.20
4103;DHT22;2065;49.790;9.620;2022-08-05T06:42:22;29.50;47.10
4103;DHT22;2065;49.790;9.620;2022-08-05T06:44:49;29.60;47.10
4103;DHT22;2065;49.790;9.620;2022-08-05T06:47:16;29.80;47.10
4103;DHT22;2065;49.790;9.620;2022-08-05T06:49:43;30.00;46.50
4103;DHT22;2065;49.790;9.620;2022-08-05T06:52:36;30.20;46.00
4103;DHT22;2065;49.790;9.620;2022-08-05T06:55:03;30.30;46.00
4103;DHT22;2065;49.790;9.620;2022-08-05T06:57:32;30.20;46.10
4103;DHT22;2065;49.790;9.620;2022-08-05T06:59:59;30.20;46.10
4103;DHT22;2065;49.790;9.620;2022-08-05T07:02:43;30.30;46.00
4103;DHT22;2065;49.790;9.620;2022-08-05T07:05:10;30.40;46.00
4103;DHT22;2065;49.790;9.620;2022-08-05T07:07:37;30.50;45.90
4103;DHT22;2065;49.790;9.620;2022-08-05T07:10:30;30.40;45.60
4103;DHT22;2065;49.790;9.620;2022-08-05T07:12:58;30.40;46.10
4103;DHT22;2065;49.790;9.620;2022-08-05T07:15:43;30.50;46.10
4103;DHT22;2065;49.790;9.620;2022-08-05T07:18:27;30.60;46.00
4103;DHT22;2065;49.790;9.620;2022-08-05T07:20:54;30.70;45.90
4103;DHT22;2065;49.790;9.620;2022-08-05T07:23:23;30.80;45.30
4103;DHT22;2065;49.790;9.620;2022-08-05T07:25:50;30.80;45.40
4103;DHT22;2065;49.790;9.620;2022-08-05T07:28:18;30.60;45.70
4103;DHT22;2065;49.790;9.620;2022-08-05T07:30:46;30.60;45.80
4103;DHT22;2065;49.790;9.620;2022-08-05T07:33:13;30.80;45.20
4103;DHT22;2065;49.790;9.620;2022-08-05T07:35:40;30.90;44.90
4103;DHT22;2065;49.790;9.620;2022-08-05T07:38:35;30.90;45.10
4103;DHT22;2065;49.790;9.620;2022-08-05T07:41:09;31.10;44.10
4103;DHT22;2065;49.790;9.620;2022-08-05T07:43:37;31.20;44.20
4103;DHT22;2065;49.790;9.620;2022-08-05T07:46:30;31.00;44.50
4103;DHT22;2065;49.790;9.620;2022-08-05T07:48:58;30.90;44.70
4103;DHT22;2065;49.790;9.620;2022-08-05T07:51:25;30.80;45.50
4103;DHT22;2065;49.790;9.620;2022-08-05T07:53:52;31.10;44.40
4103;DHT22;2065;49.790;9.620;2022-08-05T07:56:19;31.20;42.80
4103;DHT22;2065;49.790;9.620;2022-08-05T07:58:47;31.10;43.40
4103;DHT22;2065;49.790;9.620;2022-08-05T08:01:14;31.10;43.40
4103;DHT22;2065;49.790;9.620;2022-08-05T08:03:41;31.20;43.90
4103;DHT22;2065;49.790;9.620;2022-08-05T08:06:08;31.20;43.70
4103;DHT22;2065;49.790;9.620;2022-08-05T08:08:59;31.40;43.40
4103;DHT22;2065;49.790;9.620;2022-08-05T08:11:26;31.60;42.60
4103;DHT22;2065;49.790;9.620;2022-08-05T08:13:55;31.80;41.90
4103;DHT22;2065;49.790;9.620;2022-08-05T08:16:22;31.90;41.40
4103;DHT22;2065;49.790;9.620;2022-08-05T08:18:49;31.90;40.40
4103;DHT22;2065;49.790;9.620;2022-08-05T08:21:16;31.80;40.60
4103;DHT22;2065;49.790;9.620;2022-08-05T08:23:43;31.90;40.70
4103;DHT22;2065;49.790;9.620;2022-08-05T08:26:10;32.00;40.60
4103;DHT22;2065;49.790;9.620;2022-08-05T08:28:38;32.20;40.30
4103;DHT22;2065;49.790;9.620;2022-08-05T08:31:07;32.30;40.20
4103;DHT22;2065;49.790;9.620;2022-08-05T08:33:34;32.30;39.80
4103;DHT22;2065;49.790;9.620;2022-08-05T08:36:01;32.30;38.90
4103;DHT22;2065;49.790;9.620;2022-08-05T08:38:28;32.40;39.30
4103;DHT22;2065;49.790;9.620;2022-08-05T08:40:56;32.50;39.20
4103;DHT22;2065;49.790;9.620;2022-08-05T08:43:24;32.50;38.30
4103;DHT22;2065;49.790;9.620;2022-08-05T08:45:53;32.40;37.60
4103;DHT22;2065;49.790;9.620;2022-08-05T08:48:23;32.40;38.00
4103;DHT22;2065;49.790;9.620;2022-08-05T08:50:51;32.10;38.30
4103;DHT22;2065;49.790;9.620;2022-08-05T08:53:18;32.10;38.40
4103;DHT22;2065;49.790;9.620;2022-08-05T08:55:45;32.30;38.90
4103;DHT22;2065;49.790;9.620;2022-08-05T08:58:14;32.60;38.20
4103;DHT22;2065;49.790;9.620;2022-08-05T09:00:41;32.90;37.90
4103;DHT22;2065;49.790;9.620;2022-08-05T09:03:08;33.00;36.70
4103;DHT22;2065;49.790;9.620;2022-08-05T09:05:37;33.00;36.50
4103;DHT22;2065;49.790;9.620;2022-08-05T09:08:04;33.10;36.50
4103;DHT22;2065;49.790;9.620;2022-08-05T09:10:32;33.10;36.20
4103;DHT22;2065;49.790;9.620;2022-08-05T09:12:59;33.30;35.90
4103;DHT22;2065;49.790;9.620;2022-08-05T09:15:26;33.60;36.50
4103;DHT22;2065;49.790;9.620;2022-08-05T09:17:53;33.90;35.10
4103;DHT22;2065;49.790;9.620;2022-08-05T09:20:20;33.90;35.60
4103;DHT22;2065;49.790;9.620;2022-08-05T09:23:09;34.00;36.00
4103;DHT22;2065;49.790;9.620;2022-08-05T09:25:38;34.10;35.40
4103;DHT22;2065;49.790;9.620;2022-08-05T09:28:12;34.20;35.40
4103;DHT22;2065;49.790;9.620;2022-08-05T09:30:44;34.40;35.20
4103;DHT22;2065;49.790;9.620;2022-08-05T09:33:17;34.40;33.90
4103;DHT22;2065;49.790;9.620;2022-08-05T09:35:54;34.30;33.60
4103;DHT22;2065;49.790;9.620;2022-08-05T09:42:39;34.10;34.00
4103;DHT22;2065;49.790;9.620;2022-08-05T09:45:07;34.20;32.80
4103;DHT22;2065;49.790;9.620;2022-08-05T09:47:39;34.20;33.10
4103;DHT22;2065;49.790;9.620;2022-08-05T09:58:22;33.70;32.50
4103;DHT22;2065;49.790;9.620;2022-08-05T10:00:55;33.00;34.20
4103;DHT22;2065;49.790;9.620;2022-08-05T10:03:23;33.10;33.60
4103;DHT22;2065;49.790;9.620;2022-08-05T10:06:05;33.20;33.60
4103;DHT22;2065;49.790;9.620;2022-08-05T10:08:34;33.40;33.20
4103;DHT22;2065;49.790;9.620;2022-08-05T10:11:03;33.50;32.10
4103;DHT22;2065;49.790;9.620;2022-08-05T10:13:33;33.40;31.80
4103;DHT22;2065;49.790;9.620;2022-08-05T10:16:02;33.60;32.20
4103;DHT22;2065;49.790;9.620;2022-08-05T10:18:31;33.40;32.00
4103;DHT22;2065;49.790;9.620;2022-08-05T10:21:00;33.40;32.70
4103;DHT22;2065;49.790;9.620;2022-08-05T10:23:30;33.50;33.00
4103;DHT22;2065;49.790;9.620;2022-08-05T10:25:58;33.60;32.50
4103;DHT22;2065;49.790;9.620;2022-08-05T10:28:27;33.40;32.20
4103;DHT22;2065;49.790;9.620;2022-08-05T10:30:56;33.50;32.30
4103;DHT22;2065;49.790;9.620;2022-08-05T10:33:25;33.80;32.90
4103;DHT22;2065;49.790;9.620;2022-08-05T10:35:54;34.20;31.60
4103;DHT22;2065;49.790;9.620;2022-08-05T10:38:22;34.60;31.20
4103;DHT22;2065;49.790;9.620;2022-08-05T10:40:57;35.00;30.60
4103;DHT22;2065;49.790;9.620;2022-08-05T10:43:37;35.50;29.80
4103;DHT22;2065;49.790;9.620;2022-08-05T10:46:09;35.70;30.10
4103;DHT22;2065;49.790;9.620;2022-08-05T10:48:38;35.80;29.50
4103;DHT22;2065;49.790;9.620;2022-08-05T10:51:07;35.80;29.80
4103;DHT22;2065;49.790;9.620;2022-08-05T10:53:40;35.60;31.00
4103;DHT22;2065;49.790;9.620;2022-08-05T10:56:09;35.50;30.40
4103;DHT22;2065;49.790;9.620;2022-08-05T11:03:11;35.30;30.40
4103;DHT22;2065;49.790;9.620;2022-08-05T11:05:39;35.10;30.80
4103;DHT22;2065;49.790;9.620;2022-08-05T11:08:07;35.00;29.70
4103;DHT22;2065;49.790;9.620;2022-08-05T11:10:36;34.40;29.20
4103;DHT22;2065;49.790;9.620;2022-08-05T11:13:06;34.10;30.30
4103;DHT22;2065;49.790;9.620;2022-08-05T11:15:35;33.90;30.70
4103;DHT22;2065;49.790;9.620;2022-08-05T11:18:07;34.10;31.00
4103;DHT22;2065;49.790;9.620;2022-08-05T11:20:41;33.80;29.80
4103;DHT22;2065;49.790;9.620;2022-08-05T11:23:31;34.00;29.60
4103;DHT22;2065;49.790;9.620;2022-08-05T11:26:06;33.90;29.70
4103;DHT22;2065;49.790;9.620;2022-08-05T11:28:38;34.20;29.80
4103;DHT22;2065;49.790;9.620;2022-08-05T11:31:24;34.60;30.00
4103;DHT22;2065;49.790;9.620;2022-08-05T11:34:04;34.50;29.50
4103;DHT22;2065;49.790;9.620;2022-08-05T11:36:49;34.90;29.50
4103;DHT22;2065;49.790;9.620;2022-08-05T11:43:54;34.80;28.70
4103;DHT22;2065;49.790;9.620;2022-08-05T11:46:24;34.50;28.90
4103;DHT22;2065;49.790;9.620;2022-08-05T11:53:04;34.40;29.60
4103;DHT22;2065;49.790;9.620;2022-08-05T11:55:31;34.40;29.30
4103;DHT22;2065;49.790;9.620;2022-08-05T11:57:58;34.60;29.50
4103;DHT22;2065;49.790;9.620;2022-08-05T12:00:25;34.30;29.70
4103;DHT22;2065;49.790;9.620;2022-08-05T12:02:53;34.30;30.00
4103;DHT22;2065;49.790;9.620;2022-08-05T12:05:24;34.00;30.60
4103;DHT22;2065;49.790;9.620;2022-08-05T12:07:55;34.00;30.70
4103;DHT22;2065;49.790;9.620;2022-08-05T12:10:26;34.20;30.40
4103;DHT22;2065;49.790;9.620;2022-08-05T12:12:53;34.20;30.60
4103;DHT22;2065;49.790;9.620;2022-08-05T12:15:20;34.20;30.60
4103;DHT22;2065;49.790;9.620;2022-08-05T12:17:47;34.00;30.80
4103;DHT22;2065;49.790;9.620;2022-08-05T12:20:14;34.10;31.70
4103;DHT22;2065;49.790;9.620;2022-08-05T12:23:30;34.00;31.00
4103;DHT22;2065;49.790;9.620;2022-08-05T12:26:49;33.90;31.70
4103;DHT22;2065;49.790;9.620;2022-08-05T12:29:19;34.40;31.40
4103;DHT22;2065;49.790;9.620;2022-08-05T12:31:48;34.40;31.10
4103;DHT22;2065;49.790;9.620;2022-08-05T12:34:17;34.50;31.80
4103;DHT22;2065;49.790;9.620;2022-08-05T12:36:45;34.80;31.30
4103;DHT22;2065;49.790;9.620;2022-08-05T12:39:12;34.70;30.70
4103;DHT22;2065;49.790;9.620;2022-08-05T12:41:40;35.10;31.60
4103;DHT22;2065;49.790;9.620;2022-08-05T12:44:10;35.20;30.50
4103;DHT22;2065;49.790;9.620;2022-08-05T12:53:33;35.50;30.50
4103;DHT22;2065;49.790;9.620;2022-08-05T12:56:15;35.70;30.60
4103;DHT22;2065;49.790;9.620;2022-08-05T12:59:43;35.50;30.80
4103;DHT22;2065;49.790;9.620;2022-08-05T13:02:11;35.60;30.50
4103;DHT22;2065;49.790;9.620;2022-08-05T13:04:40;35.80;31.00
4103;DHT22;2065;49.790;9.620;2022-08-05T13:07:09;35.70;30.40
4103;DHT22;2065;49.790;9.620;2022-08-05T13:09:38;35.90;30.80
4103;DHT22;2065;49.790;9.620;2022-08-05T13:12:07;35.70;31.00
4103;DHT22;2065;49.790;9.620;2022-08-05T13:14:39;35.30;31.10
4103;DHT22;2065;49.790;9.620;2022-08-05T13:17:08;35.40;31.40
4103;DHT22;2065;49.790;9.620;2022-08-05T13:19:36;35.50;30.80
4103;DHT22;2065;49.790;9.620;2022-08-05T13:22:04;35.60;30.90
4103;DHT22;2065;49.790;9.620;2022-08-05T13:24:31;35.40;31.10
4103;DHT22;2065;49.790;9.620;2022-08-05T13:26:58;35.20;30.70
4103;DHT22;2065;49.790;9.620;2022-08-05T13:29:25;34.50;30.50
4103;DHT22;2065;49.790;9.620;2022-08-05T13:31:54;34.20;31.10
4103;DHT22;2065;49.790;9.620;2022-08-05T13:34:23;34.10;31.90
4103;DHT22;2065;49.790;9.620;2022-08-05T13:36:50;34.20;32.80
4103;DHT22;2065;49.790;9.620;2022-08-05T13:39:17;34.00;31.70
4103;DHT22;2065;49.790;9.620;2022-08-05T13:41:44;33.90;32.30
4103;DHT22;2065;49.790;9.620;2022-08-05T13:44:11;33.90;32.00
4103;DHT22;2065;49.790;9.620;2022-08-05T13:46:38;33.80;31.80
4103;DHT22;2065;49.790;9.620;2022-08-05T13:49:06;33.60;32.50
4103;DHT22;2065;49.790;9.620;2022-08-05T13:51:33;33.50;33.10
4103;DHT22;2065;49.790;9.620;2022-08-05T13:54:00;33.30;33.10
4103;DHT22;2065;49.790;9.620;2022-08-05T13:56:27;33.00;33.50
4103;DHT22;2065;49.790;9.620;2022-08-05T13:58:54;33.10;34.10
4103;DHT22;2065;49.790;9.620;2022-08-05T14:05:30;33.00;34.20
4103;DHT22;2065;49.790;9.620;2022-08-05T14:07:57;32.90;34.40
4103;DHT22;2065;49.790;9.620;2022-08-05T14:10:24;33.10;34.60
4103;DHT22;2065;49.790;9.620;2022-08-05T14:12:51;33.20;34.50
4103;DHT22;2065;49.790;9.620;2022-08-05T14:15:18;33.30;34.40
4103;DHT22;2065;49.790;9.620;2022-08-05T14:17:45;33.40;34.10
4103;DHT22;2065;49.790;9.620;2022-08-05T14:20:12;33.40;34.50
4103;DHT22;2065;49.790;9.620;2022-08-05T14:22:41;33.40;34.50
4103;DHT22;2065;49.790;9.620;2022-08-05T14:25:08;33.60;34.40
4103;DHT22;2065;49.790;9.620;2022-08-05T14:27:35;33.20;35.00
4103;DHT22;2065;49.790;9.620;2022-08-05T14:30:03;33.10;35.20
4103;DHT22;2065;49.790;9.620;2022-08-05T14:32:30;33.10;35.50
4103;DHT22;2065;49.790;9.620;2022-08-05T14:34:58;33.10;35.50
4103;DHT22;2065;49.790;9.620;2022-08-05T14:37:25;32.90;35.50
4103;DHT22;2065;49.790;9.620;2022-08-05T14:40:18;32.90;36.00
4103;DHT22;2065;49.790;9.620;2022-08-05T14:42:45;32.90;35.80
4103;DHT22;2065;49.790;9.620;2022-08-05T14:45:12;32.90;36.20
4103;DHT22;2065;49.790;9.620;2022-08-05T14:47:39;32.90;36.20
4103;DHT22;2065;49.790;9.620;2022-08-05T14:50:31;33.10;36.10
4103;DHT22;2065;49.790;9.620;2022-08-05T14:52:58;33.30;36.00
4103;DHT22;2065;49.790;9.620;2022-08-05T14:55:27;33.30;36.10
4103;DHT22;2065;49.790;9.620;2022-08-05T14:57:59;33.40;35.80
4103;DHT22;2065;49.790;9.620;2022-08-05T15:00:26;33.10;36.40
4103;DHT22;2065;49.790;9.620;2022-08-05T15:02:53;33.10;36.20
4103;DHT22;2065;49.790;9.620;2022-08-05T15:05:20;33.10;36.60
4103;DHT22;2065;49.790;9.620;2022-08-05T15:08:13;33.10;36.80
4103;DHT22;2065;49.790;9.620;2022-08-05T15:10:41;33.30;36.20
4103;DHT22;2065;49.790;9.620;2022-08-05T15:13:08;33.30;36.40
4103;DHT22;2065;49.790;9.620;2022-08-05T15:15:35;33.10;36.90
4103;DHT22;2065;49.790;9.620;2022-08-05T15:18:28;33.20;36.50
4103;DHT22;2065;49.790;9.620;2022-08-05T15:20:55;33.00;36.70
4103;DHT22;2065;49.790;9.620;2022-08-05T15:23:22;32.80;37.50
4103;DHT22;2065;49.790;9.620;2022-08-05T15:26:15;32.90;37.20
4103;DHT22;2065;49.790;9.620;2022-08-05T15:28:42;33.10;37.10
4103;DHT22;2065;49.790;9.620;2022-08-05T15:31:09;33.10;37.20
4103;DHT22;2065;49.790;9.620;2022-08-05T15:33:37;33.20;37.40
4103;DHT22;2065;49.790;9.620;2022-08-05T15:40:37;33.10;37.70
4103;DHT22;2065;49.790;9.620;2022-08-05T15:43:05;32.90;38.20
4103;DHT22;2065;49.790;9.620;2022-08-05T15:45:32;32.80;38.20
4103;DHT22;2065;49.790;9.620;2022-08-05T15:52:05;32.80;38.80
4103;DHT22;2065;49.790;9.620;2022-08-05T15:54:32;32.40;39.70
4103;DHT22;2065;49.790;9.620;2022-08-05T16:01:35;32.30;39.80
4103;DHT22;2065;49.790;9.620;2022-08-05T16:04:03;32.00;40.50
4103;DHT22;2065;49.790;9.620;2022-08-05T16:06:31;32.10;40.70
4103;DHT22;2065;49.790;9.620;2022-08-05T16:08:58;32.20;40.20
4103;DHT22;2065;49.790;9.620;2022-08-05T16:11:25;32.40;40.30
4103;DHT22;2065;49.790;9.620;2022-08-05T16:13:52;32.60;39.80
4103;DHT22;2065;49.790;9.620;2022-08-05T16:16:19;32.60;39.90
4103;DHT22;2065;49.790;9.620;2022-08-05T16:18:47;32.70;39.90
4103;DHT22;2065;49.790;9.620;2022-08-05T16:25:20;32.50;39.80
4103;DHT22;2065;49.790;9.620;2022-08-05T16:27:47;32.20;40.20
4103;DHT22;2065;49.790;9.620;2022-08-05T16:30:14;32.30;40.20
4103;DHT22;2065;49.790;9.620;2022-08-05T16:32:41;32.10;40.10
4103;DHT22;2065;49.790;9.620;2022-08-05T16:35:10;31.90;40.20
4103;DHT22;2065;49.790;9.620;2022-08-05T16:37:37;31.80;40.60
4103;DHT22;2065;49.790;9.620;2022-08-05T16:40:05;32.00;40.00
4103;DHT22;2065;49.790;9.620;2022-08-05T16:42:33;32.00;39.50
4103;DHT22;2065;49.790;9.620;2022-08-05T16:45:00;31.60;40.10
4103;DHT22;2065;49.790;9.620;2022-08-05T16:47:27;31.40;40.10
4103;DHT22;2065;49.790;9.620;2022-08-05T16:49:54;31.20;40.50
4103;DHT22;2065;49.790;9.620;2022-08-05T16:52:22;31.40;40.60
4103;DHT22;2065;49.790;9.620;2022-08-05T16:54:49;31.40;40.50
4103;DHT22;2065;49.790;9.620;2022-08-05T16:57:16;31.30;40.50
4103;DHT22;2065;49.790;9.620;2022-08-05T16:59:48;31.20;40.90
4103;DHT22;2065;49.790;9.620;2022-08-05T17:02:15;31.00;41.30
4103;DHT22;2065;49.790;9.620;2022-08-05T17:04:42;30.90;41.80
4103;DHT22;2065;49.790;9.620;2022-08-05T17:07:09;30.80;41.60
4103;DHT22;2065;49.790;9.620;2022-08-05T17:09:37;30.90;41.60
4103;DHT22;2065;49.790;9.620;2022-08-05T17:12:05;31.10;41.30
4103;DHT22;2065;49.790;9.620;2022-08-05T17:14:32;31.00;40.80
4103;DHT22;2065;49.790;9.620;2022-08-05T17:24:22;30.60;41.90
4103;DHT22;2065;49.790;9.620;2022-08-05T17:26:50;30.50;42.30
4103;DHT22;2065;49.790;9.620;2022-08-05T17:29:18;30.20;42.90
4103;DHT22;2065;49.790;9.620;2022-08-05T17:32:34;30.20;43.00